createdAt,value
2023-04-28T00:00:00.171Z,58.6
2023-04-28T00:05:00.278Z,59.8
2023-04-28T00:10:00.184Z,61.1
2023-04-28T00:15:00.175Z,61.5
2023-04-28T00:20:00.147Z,62.1
2023-04-28T00:25:00.164Z,62.2
2023-04-28T00:30:00.183Z,62.6
2023-04-28T00:35:00.161Z,62.8
2023-04-28T00:40:00.218Z,64
2023-04-28T00:45:00.177Z,64.6
2023-04-28T00:50:00.221Z,64.6
2023-04-28T00:55:00.163Z,65.2
2023-04-28T01:00:00.256Z,65.6
2023-04-28T01:05:00.146Z,66.1
2023-04-28T01:10:00.212Z,66.2
2023-04-28T01:15:00.195Z,66.5
2023-04-28T01:20:00.165Z,67.1
2023-04-28T01:25:00.212Z,67.6
2023-04-28T01:30:00.263Z,66.9
2023-04-28T01:35:00.160Z,67.9
2023-04-28T01:40:00.130Z,68.4
2023-04-28T01:45:00.171Z,69.1
2023-04-28T01:50:00.213Z,69.4
2023-04-28T01:55:00.136Z,69.8
2023-04-28T02:00:00.217Z,70.3
2023-04-28T02:05:00.279Z,70.5
2023-04-28T02:10:00.159Z,70.3
2023-04-28T02:15:00.145Z,70.2
2023-04-28T02:20:00.209Z,69.9
2023-04-28T02:25:00.119Z,69.7
2023-04-28T02:30:00.163Z,69.6
2023-04-28T02:35:00.119Z,69.9
2023-04-28T02:40:00.129Z,69.9
2023-04-28T02:45:00.198Z,70.2
2023-04-28T02:50:00.229Z,70.3
2023-04-28T02:55:00.125Z,70.4
2023-04-28T03:00:00.201Z,70.4
2023-04-28T03:05:00.189Z,70.8
2023-04-28T03:10:00.172Z,70.4
2023-04-28T03:15:00.129Z,70
2023-04-28T03:20:00.135Z,69.5
2023-04-28T03:25:00.124Z,69
2023-04-28T03:30:00.215Z,68.5
2023-04-28T03:35:00.182Z,67.8
2023-04-28T03:40:00.184Z,68.6
2023-04-28T03:45:00.129Z,68.9
2023-04-28T03:50:00.170Z,69.1
2023-04-28T03:55:00.193Z,69.1
2023-04-28T04:00:00.142Z,69
2023-04-28T04:05:00.446Z,68.6
2023-04-28T04:10:00.906Z,68.1
2023-04-28T04:15:00.168Z,67.7
2023-04-28T04:20:00.178Z,67.3
2023-04-28T04:25:00.122Z,67.3
2023-04-28T04:30:00.425Z,67.1
2023-04-28T04:35:00.157Z,67.3
2023-04-28T04:40:00.182Z,67.3
2023-04-28T04:45:00.122Z,67.2
2023-04-28T04:50:00.197Z,67
2023-04-28T04:55:00.159Z,66.5
2023-04-28T05:00:00.166Z,66.6
2023-04-28T05:05:08.456Z,67.1
2023-04-28T05:10:00.145Z,67.3
2023-04-28T05:15:00.149Z,68.2
2023-04-28T05:20:00.115Z,75.5
2023-04-28T05:25:00.161Z,90.7
2023-04-28T05:30:00.278Z,89.6
2023-04-28T05:35:00.105Z,91.5
2023-04-28T05:40:00.189Z,91.1
2023-04-28T05:45:00.178Z,99.9
2023-04-28T05:50:00.147Z,99.9
2023-04-28T05:55:00.181Z,99.9
2023-04-28T06:00:00.150Z,99.9
2023-04-28T06:05:00.532Z,99.9
2023-04-28T06:10:00.170Z,99.9
2023-04-28T06:15:00.183Z,50.1
2023-04-28T06:20:00.192Z,49.2
2023-04-28T06:25:00.165Z,42.8
2023-04-28T06:30:00.179Z,38.2
2023-04-28T06:35:00.134Z,36.4
2023-04-28T06:40:00.176Z,35.5
2023-04-28T06:45:00.158Z,36
2023-04-28T06:50:00.169Z,35.9
2023-04-28T06:55:00.125Z,36.1
2023-04-28T07:00:00.163Z,37.3
2023-04-28T07:05:00.140Z,38.9
2023-04-28T07:10:00.186Z,40.1
2023-04-28T07:15:00.112Z,41
2023-04-28T07:20:00.161Z,41.4
2023-04-28T07:25:00.141Z,40.7
2023-04-28T07:30:00.370Z,41.2
2023-04-28T07:35:00.142Z,40.4
2023-04-28T07:40:00.202Z,42.6
2023-04-28T07:45:00.128Z,42.9
2023-04-28T07:50:00.170Z,42.4
2023-04-28T07:55:00.122Z,42.2
2023-04-28T08:00:00.138Z,41.7
2023-04-28T08:05:00.404Z,41.3
2023-04-28T08:10:00.187Z,38.1
2023-04-28T08:15:00.190Z,37.4
2023-04-28T08:20:00.148Z,36.8
2023-04-28T08:25:00.178Z,36.4
2023-04-28T08:30:00.240Z,36.6
2023-04-28T08:35:00.184Z,37
2023-04-28T08:40:00.153Z,38.1
2023-04-28T08:45:00.128Z,38.8
2023-04-28T08:50:00.135Z,38.1
2023-04-28T08:55:00.171Z,39.8
2023-04-28T09:00:00.203Z,40.9
2023-04-28T09:05:00.354Z,44.4
2023-04-28T09:10:00.157Z,48.6
2023-04-28T09:15:00.124Z,50.3
2023-04-28T09:20:00.214Z,52.2
2023-04-28T09:25:00.153Z,54.3
2023-04-28T09:30:00.206Z,66.3
2023-04-28T09:35:00.164Z,76.7
2023-04-28T09:40:00.252Z,78.5
2023-04-28T09:45:00.147Z,74.1
2023-04-28T09:50:00.201Z,73.5
2023-04-28T09:55:00.197Z,77.2
2023-04-28T10:00:00.160Z,76
2023-04-28T10:05:00.494Z,80
2023-04-28T10:10:00.216Z,83
2023-04-28T10:15:00.152Z,82.1
2023-04-28T10:20:00.155Z,83.5
2023-04-28T10:25:00.160Z,80.6
2023-04-28T10:30:00.226Z,78
2023-04-28T10:35:00.159Z,79.5
2023-04-28T10:40:00.199Z,79.3
2023-04-28T10:45:00.137Z,84.9
2023-04-28T10:50:00.198Z,84.1
2023-04-28T10:55:01.766Z,85.1
2023-04-28T11:00:00.157Z,89.4
2023-04-28T11:05:00.249Z,91.1
2023-04-28T11:10:00.199Z,91.4
2023-04-28T11:15:00.133Z,92.8
2023-04-28T11:20:00.114Z,94.1
2023-04-28T11:25:00.153Z,94.1
2023-04-28T11:30:00.194Z,93
2023-04-28T11:35:00.146Z,93.5
2023-04-28T11:40:00.188Z,92.1
2023-04-28T11:45:00.176Z,91.5
2023-04-28T11:50:00.219Z,91.5
2023-04-28T11:55:00.567Z,91
2023-04-28T12:00:00.193Z,90.9
2023-04-28T12:05:00.287Z,91.7
2023-04-28T12:10:00.166Z,93.1
2023-04-28T12:15:00.170Z,92.5
2023-04-28T12:20:00.140Z,92.3
2023-04-28T12:25:00.185Z,89.4
2023-04-28T12:30:00.176Z,86.3
2023-04-28T12:35:00.179Z,80.2
2023-04-28T12:40:00.177Z,80.5
2023-04-28T12:45:00.193Z,77.8
2023-04-28T12:50:00.215Z,76.7
2023-04-28T12:55:00.160Z,76
2023-04-28T13:00:00.246Z,75.1
2023-04-28T13:05:00.279Z,77.7
2023-04-28T13:10:00.271Z,76.8
2023-04-28T13:15:00.134Z,77.1
2023-04-28T13:20:00.129Z,73.8
2023-04-28T13:25:00.151Z,75.5
2023-04-28T13:30:00.210Z,76.9
2023-04-28T13:35:00.158Z,76.6
2023-04-28T13:40:00.225Z,75.5
2023-04-28T13:45:00.139Z,75.6
2023-04-28T13:50:00.159Z,75.1
2023-04-28T13:55:00.159Z,74.2
2023-04-28T14:00:00.204Z,74.4
2023-04-28T14:05:00.147Z,74.1
2023-04-28T14:10:00.195Z,74.6
2023-04-28T14:15:00.132Z,75.8
2023-04-28T14:20:00.193Z,75.8
2023-04-28T14:25:00.136Z,74
2023-04-28T14:30:00.213Z,73.1
2023-04-28T14:35:00.116Z,74.3
2023-04-28T14:40:00.229Z,73.3
2023-04-28T14:45:00.185Z,73.7
2023-04-28T14:50:00.252Z,72.5
2023-04-28T14:55:00.148Z,73.5
2023-04-28T15:00:00.145Z,73.9
2023-04-28T15:05:00.213Z,73.3
2023-04-28T15:10:00.232Z,72.9
2023-04-28T15:15:00.146Z,72.5
2023-04-28T15:20:00.192Z,73
2023-04-28T15:25:00.171Z,74.5
2023-04-28T15:30:00.276Z,74.4
2023-04-28T15:35:00.208Z,74.4
2023-04-28T15:40:00.205Z,74.9
2023-04-28T15:45:00.130Z,74.7
2023-04-28T15:50:00.200Z,75
2023-04-28T15:55:00.153Z,75.9
2023-04-28T16:00:00.200Z,76.1
2023-04-28T16:05:00.152Z,76.5
2023-04-28T16:10:00.152Z,76.9
2023-04-28T16:15:00.182Z,77
2023-04-28T16:20:00.180Z,78.4
2023-04-28T16:25:00.192Z,78.7
2023-04-28T16:30:00.233Z,77
2023-04-28T16:35:00.169Z,76.7
2023-04-28T16:40:00.181Z,77.8
2023-04-28T16:45:00.154Z,78.6
2023-04-28T16:50:00.235Z,78.9
2023-04-28T16:55:00.399Z,79.1
2023-04-28T17:00:00.151Z,78.9
2023-04-28T17:05:00.155Z,78.7
2023-04-28T17:10:00.194Z,79.3
2023-04-28T17:15:00.133Z,79
2023-04-28T17:20:00.208Z,79
2023-04-28T17:25:00.174Z,79.3
2023-04-28T17:30:00.190Z,79.3
2023-04-28T17:35:00.170Z,79.6
2023-04-28T17:40:00.199Z,79.5
2023-04-28T17:45:00.166Z,79.9
2023-04-28T17:50:00.331Z,80.6
2023-04-28T17:55:00.168Z,81
2023-04-28T18:00:00.245Z,81.2
2023-04-28T18:05:00.276Z,81.7
2023-04-28T18:10:00.228Z,82.2
2023-04-28T18:15:00.150Z,83
2023-04-28T18:20:00.211Z,84.1
2023-04-28T18:25:00.154Z,84.9
2023-04-28T18:30:00.217Z,85.6
2023-04-28T18:35:00.152Z,85.9
2023-04-28T18:40:00.188Z,86.5
2023-04-28T18:45:00.142Z,86.7
2023-04-28T18:50:00.181Z,87.5
2023-04-28T18:55:00.184Z,88.7
2023-04-28T19:00:00.207Z,89.5
2023-04-28T19:05:00.392Z,90
2023-04-28T19:10:00.256Z,90.2
2023-04-28T19:15:00.166Z,90.3
2023-04-28T19:20:00.230Z,90.6
2023-04-28T19:25:00.142Z,90.9
2023-04-28T19:30:00.231Z,91
2023-04-28T19:35:00.178Z,91.3
2023-04-28T19:40:00.157Z,91.5
2023-04-28T19:45:00.189Z,91.9
2023-04-28T19:50:00.174Z,92
2023-04-28T19:55:00.181Z,92.1
2023-04-28T20:00:00.217Z,92.4
2023-04-28T20:05:00.170Z,92.8
2023-04-28T20:10:00.156Z,92.9
2023-04-28T20:15:00.196Z,93.2
2023-04-28T20:20:00.189Z,93.3
2023-04-28T20:25:00.209Z,93.8
2023-04-28T20:30:00.208Z,94
2023-04-28T20:35:00.185Z,94.1
2023-04-28T20:40:00.183Z,94.3
2023-04-28T20:45:00.158Z,94.6
2023-04-28T20:50:00.366Z,94.5
2023-04-28T20:55:00.150Z,94.6
2023-04-28T21:00:00.214Z,94.5
2023-04-28T21:05:00.174Z,94.4
2023-04-28T21:10:00.256Z,94.3
2023-04-28T21:15:00.164Z,94.1
2023-04-28T21:20:00.115Z,94.1
2023-04-28T21:25:00.151Z,94.2
2023-04-28T21:30:00.226Z,94.3
2023-04-28T21:35:00.205Z,94.2
2023-04-28T21:40:00.185Z,94.3
2023-04-28T21:45:00.195Z,94.6
2023-04-28T21:50:00.189Z,95.1
2023-04-28T21:55:00.153Z,95.2
2023-04-28T22:00:00.256Z,95.6
2023-04-28T22:05:00.142Z,96.2
2023-04-28T22:10:00.195Z,96.4
2023-04-28T22:15:00.156Z,96.6
2023-04-28T22:20:00.177Z,96.9
2023-04-28T22:25:00.260Z,96.8
2023-04-28T22:30:00.252Z,97.3
2023-04-28T22:35:00.146Z,97.9
2023-04-28T22:40:00.169Z,98.2
2023-04-28T22:45:01.986Z,98.1
2023-04-28T22:50:00.185Z,98.1
2023-04-28T22:55:00.170Z,97.7
2023-04-28T23:00:00.255Z,98.4
2023-04-28T23:05:00.149Z,98.6
2023-04-28T23:10:00.215Z,99.1
2023-04-28T23:15:00.134Z,99.5
2023-04-28T23:20:00.186Z,99.8
2023-04-28T23:25:00.183Z,99.9
2023-04-28T23:30:00.221Z,99.9
2023-04-28T23:35:00.135Z,99.9
2023-04-28T23:40:00.178Z,99.9
2023-04-28T23:45:00.161Z,99.9
2023-04-28T23:50:00.194Z,99.9
2023-04-28T23:55:00.161Z,99.9
